S 386 Casilo — OZZP — position and weather

sailwx.info

Track history (hours):
 
Tides and Currents Weather Stations Pressure Air Temp Water Temp Dewpoint Dewpoint Depression Visibility Wind Speed Wind Dir Waves Ship Positions

S 386 Casilo

Last reported at 2017-Jul-27 08:00 UTC. Time now 2017-Jul-27 08:24 UTC.
Position N 58°01' E 010°53'.

Length 24 m.

Type: Fishing. MMSI: 219948000.

Date/timePositionNaut miles runAvg speedWind from/ knotsBaromVisibWave heightAir tempDewpointWater temp
2017-Jul-27 08:00N 58°01' E 010°53'1 1.8
2017-Jul-27 07:29N 58°01' E 010°51'1 1.9
2017-Jul-27 06:56N 58°00' E 010°49'1 2.0
2017-Jul-27 06:30N 58°00' E 010°48'1 2.1
2017-Jul-27 06:00N 58°00' E 010°46'1 2.0
2017-Jul-27 05:30N 58°00' E 010°44'1 2.0
2017-Jul-27 04:59N 58°01' E 010°43'1 1.9
2017-Jul-27 04:30N 58°02' E 010°41'1 1.9
2017-Jul-27 04:00N 58°03' E 010°40'1 1.9
2017-Jul-27 03:30N 58°03' E 010°39'1 1.9
2017-Jul-27 03:00N 58°04' E 010°38'1 1.9
2017-Jul-27 02:29N 58°05' E 010°37'1 1.9
2017-Jul-27 01:58N 58°06' E 010°36'1 1.8
2017-Jul-27 01:30N 58°06' E 010°35'1 1.8
2017-Jul-27 01:00N 58°07' E 010°34'1 1.9
2017-Jul-27 00:30N 58°08' E 010°33'2 1.9
2017-Jul-26 23:35N 58°09' E 010°30'0 1.9
2017-Jul-26 23:26N 58°09' E 010°29'6 2.0
2017-Jul-26 20:14N 58°10' E 010°17'2 8.8
2017-Jul-26 20:00N 58°10' E 010°21'5 8.6
2017-Jul-26 19:28N 58°10' E 010°30'4 8.1
2017-Jul-26 19:00N 58°10' E 010°37'2 4.3
2017-Jul-26 18:30N 58°10' E 010°41'0 0.8
2017-Jul-26 18:00N 58°10' E 010°40'1 2.0
2017-Jul-26 17:31N 58°11' E 010°39'1 2.0
2017-Jul-26 17:00N 58°12' E 010°38'1 2.0
2017-Jul-26 16:30N 58°12' E 010°36'1 2.0
2017-Jul-26 16:00N 58°13' E 010°34'1 2.0
2017-Jul-26 15:28N 58°13' E 010°32'4 2.0
2017-Jul-26 13:17N 58°14' E 010°25'1 2.0
2017-Jul-26 12:59N 58°14' E 010°23'12 2.0
2017-Jul-26 07:12N 58°10' E 010°02'1 2.8
2017-Jul-26 06:56N 58°10' E 010°01'3 8.0
2017-Jul-26 06:30N 58°11' E 010°08'34 2.1
2017-Jul-25 13:58N 57°38' E 009°55'2 2.8
2017-Jul-25 13:05N 57°36' E 009°58'1 7.8
2017-Jul-25 13:00N 57°36' E 009°57'5 9.3
2017-Jul-25 12:29N 57°40' E 010°02'4 9.2
2017-Jul-25 12:00N 57°44' E 010°06'5 9.3
2017-Jul-25 11:31N 57°49' E 010°09'5 9.3
2017-Jul-25 11:00N 57°53' E 010°12'5 9.1
2017-Jul-25 10:30N 57°57' E 010°15'8 8.7
2017-Jul-25 09:33N 58°05' E 010°18'3 8.8
2017-Jul-25 09:13N 58°08' E 010°19'6 8.1
2017-Jul-25 08:30N 58°14' E 010°22'1 0.9
2017-Jul-25 07:51N 58°13' E 010°22'1 1.8
2017-Jul-25 07:11N 58°13' E 010°20'0 1.9
2017-Jul-25 07:00N 58°13' E 010°19'1 1.9
2017-Jul-25 06:30N 58°13' E 010°18'1 1.9
2017-Jul-25 06:01N 58°13' E 010°16'1 1.9
2017-Jul-25 05:30N 58°13' E 010°14'1 1.9
2017-Jul-25 04:56N 58°12' E 010°12'1 1.9
2017-Jul-25 04:30N 58°12' E 010°11'1 2.0
2017-Jul-25 03:59N 58°12' E 010°09'1 2.0
2017-Jul-25 03:30N 58°11' E 010°08'1 2.0
2017-Jul-25 03:00N 58°11' E 010°06'1 2.0
2017-Jul-25 02:30N 58°10' E 010°04'3 1.7
2017-Jul-25 00:53N 58°09' E 009°59'7 0.4
2017-Jul-24 09:37N 58°07' E 009°47'2 9.0
2017-Jul-24 09:22N 58°09' E 009°50'4 9.2
2017-Jul-24 08:59N 58°11' E 009°55'4 9.2
2017-Jul-24 08:29N 58°13' E 010°02'2 3.2
2017-Jul-24 08:00N 58°14' E 010°05'24 1.9
2017-Jul-23 19:21N 57°60' E 009°28'6 9.2
2017-Jul-23 18:43N 57°59' E 009°39'9 9.1
2017-Jul-23 17:42N 57°55' E 009°55'9 9.4
2017-Jul-23 16:47N 57°52' E 010°10'3 9.4
2017-Jul-23 16:29N 57°51' E 010°15'5 9.5
2017-Jul-23 16:00N 57°49' E 010°23'5 9.9
2017-Jul-23 15:31N 57°47' E 010°31'510.0
2017-Jul-23 15:00N 57°46' E 010°41'3 6.3
2017-Jul-23 14:30N 57°43' E 010°38'1 2.3
2017-Jul-23 14:00N 57°43' E 010°36'0 0.0
2017-Jul-23 13:30N 57°43' E 010°36'0 0.1
2017-Jul-23 13:00N 57°43' E 010°36'1 1.1
2017-Jul-23 12:31N 57°43' E 010°36'4 7.6
2017-Jul-23 12:00N 57°45' E 010°42'5 8.9
2017-Jul-23 11:30N 57°50' E 010°43'4 8.6
2017-Jul-23 11:00N 57°54' E 010°43'4 8.5
2017-Jul-23 10:31N 57°58' E 010°43'4 8.0
2017-Jul-23 10:00N 58°02' E 010°42'3 5.9
2017-Jul-23 09:30N 58°05' E 010°42'0 0.8
2017-Jul-23 08:58N 58°05' E 010°42'4 1.9
2017-Jul-23 06:54N 58°08' E 010°38'1 1.9
2017-Jul-23 06:30N 58°09' E 010°37'1 1.9
2017-Jul-23 06:00N 58°09' E 010°36'1 1.9
2017-Jul-23 05:29N 58°10' E 010°34'1 1.8
2017-Jul-23 04:59N 58°10' E 010°33'1 1.8
2017-Jul-23 04:30N 58°11' E 010°31'1 1.8
2017-Jul-23 04:00N 58°11' E 010°30'1 1.8
2017-Jul-23 03:30N 58°12' E 010°29'1 1.8
2017-Jul-23 03:00N 58°12' E 010°27'1 1.8
2017-Jul-23 02:28N 58°12' E 010°25'1 1.9
2017-Jul-23 02:00N 58°12' E 010°24'1 1.9
2017-Jul-23 01:30N 58°12' E 010°22'1 1.9
2017-Jul-23 01:00N 58°12' E 010°20'9 1.9
2017-Jul-22 20:06N 58°15' E 010°03'3 1.4
2017-Jul-22 18:15N 58°13' E 010°01'1 1.9
2017-Jul-22 17:46N 58°12' E 009°59'1 1.9
2017-Jul-22 17:28N 58°12' E 009°58'1 1.9
2017-Jul-22 16:59N 58°11' E 009°57'12 1.9
2017-Jul-22 10:58N 58°05' E 009°38'1 2.1
2017-Jul-22 10:28N 58°05' E 009°37'1 2.1
2017-Jul-22 10:00N 58°04' E 009°35'1 2.1
2017-Jul-22 09:30N 58°03' E 009°33'5 1.5
2017-Jul-22 06:31N 58°01' E 009°26'2 8.7
2017-Jul-22 06:17N 58°02' E 009°29'7 8.8
2017-Jul-22 05:26N 58°06' E 009°41'4 9.1
2017-Jul-22 05:01N 58°08' E 009°47'5 9.3
2017-Jul-22 04:30N 58°10' E 009°55'6 6.9
2017-Jul-22 03:34N 58°15' E 010°04'0 1.0
2017-Jul-22 03:30N 58°15' E 010°04'0 0.9
2017-Jul-22 03:00N 58°14' E 010°05'1 1.6
2017-Jul-22 02:08N 58°13' E 010°03'0 1.9
2017-Jul-22 02:00N 58°13' E 010°02'2 1.9
2017-Jul-22 01:07N 58°12' E 009°60'2 2.0
2017-Jul-22 00:05N 58°11' E 009°57'1 2.0
2017-Jul-21 23:45N 58°11' E 009°56'26 1.0
2017-Jul-20 21:58N 57°51' E 009°24'5 8.5
2017-Jul-20 21:21N 57°51' E 009°34'3 8.5
2017-Jul-20 21:00N 57°50' E 009°40'4 8.7
2017-Jul-20 20:29N 57°50' E 009°48'4 9.1
2017-Jul-20 20:00N 57°49' E 009°56'5 9.3
2017-Jul-20 19:29N 57°49' E 010°05'5 9.4
2017-Jul-20 19:00N 57°49' E 010°14'5 9.6
2017-Jul-20 18:28N 57°48' E 010°23'510.3
2017-Jul-20 18:00N 57°48' E 010°32'610.0
2017-Jul-20 17:27N 57°46' E 010°42'4 8.6
2017-Jul-20 17:00N 57°43' E 010°37'1 1.4
2017-Jul-20 16:30N 57°43' E 010°36'0 0.0
2017-Jul-20 16:00N 57°43' E 010°36'0 0.0
2017-Jul-20 15:26N 57°43' E 010°36'0 0.0
2017-Jul-20 15:00N 57°43' E 010°36'0 0.0
2017-Jul-20 14:00N 57°43' E 010°36'0 0.0
2017-Jul-20 13:30N 57°43' E 010°36'3 5.9
2017-Jul-20 12:59N 57°44' E 010°41'4 8.4
2017-Jul-20 12:30N 57°48' E 010°44'6 8.8
2017-Jul-20 11:49N 57°54' E 010°46'3 8.1
2017-Jul-20 11:27N 57°56' E 010°47'5 8.2
2017-Jul-20 10:51N 58°01' E 010°48'3 8.2
2017-Jul-20 10:29N 58°04' E 010°48'2 3.6
2017-Jul-20 09:59N 58°06' E 010°49'2 1.6
2017-Jul-20 08:37N 58°04' E 010°49'0 1.8
2017-Jul-20 08:22N 58°04' E 010°49'1 1.8
2017-Jul-20 07:59N 58°03' E 010°49'1 1.8
2017-Jul-20 07:30N 58°02' E 010°47'1 1.8
2017-Jul-20 06:59N 58°02' E 010°45'1 1.9
2017-Jul-20 06:30N 58°03' E 010°44'1 1.9
2017-Jul-20 05:59N 58°04' E 010°44'1 1.9
2017-Jul-20 05:30N 58°05' E 010°43'1 2.0
2017-Jul-20 05:00N 58°06' E 010°42'1 2.0
2017-Jul-20 04:30N 58°07' E 010°41'1 2.0
2017-Jul-20 04:00N 58°08' E 010°40'1 2.0
2017-Jul-20 03:20N 58°09' E 010°39'1 2.0
2017-Jul-20 02:51N 58°09' E 010°38'1 2.0
2017-Jul-20 02:17N 58°10' E 010°36'1 2.0
2017-Jul-20 01:36N 58°11' E 010°34'0 2.0
2017-Jul-20 01:30N 58°11' E 010°34'1 1.9
2017-Jul-20 00:57N 58°11' E 010°32'1 2.0
2017-Jul-20 00:25N 58°12' E 010°30'1 1.9
2017-Jul-19 23:58N 58°12' E 010°28'2 2.0
2017-Jul-19 23:04N 58°13' E 010°25'0 2.0
2017-Jul-19 22:52N 58°13' E 010°24'1 2.0
2017-Jul-19 22:28N 58°12' E 010°23'1 2.0
2017-Jul-19 22:00N 58°12' E 010°21'1 2.0
2017-Jul-19 21:30N 58°12' E 010°19'1 2.0
2017-Jul-19 20:59N 58°12' E 010°17'1 1.9
2017-Jul-19 20:28N 58°12' E 010°16'4 9.5
2017-Jul-19 19:59N 58°14' E 010°23'6 9.8
2017-Jul-19 19:21N 58°17' E 010°33'5 9.9
2017-Jul-19 18:50N 58°19' E 010°42'3 8.5
2017-Jul-19 18:30N 58°22' E 010°41'1 1.8
2017-Jul-19 17:57N 58°23' E 010°41'1 1.4
2017-Jul-19 17:28N 58°22' E 010°42'1 2.1
2017-Jul-19 16:53N 58°21' E 010°42'3 2.0
2017-Jul-19 15:32N 58°19' E 010°44'0 1.9
2017-Jul-19 15:30N 58°19' E 010°44'1 2.0
2017-Jul-19 15:00N 58°18' E 010°44'7 1.9
2017-Jul-19 11:28N 58°11' E 010°48'1 1.9
2017-Jul-19 11:00N 58°10' E 010°48'1 1.9
2017-Jul-19 10:22N 58°09' E 010°49'1 2.0
2017-Jul-19 09:45N 58°08' E 010°50'1 2.0
2017-Jul-19 09:25N 58°07' E 010°50'1 2.0
2017-Jul-19 08:58N 58°07' E 010°51'1 1.9
2017-Jul-19 08:20N 58°05' E 010°51'1 2.0
2017-Jul-19 08:00N 58°05' E 010°51'1 1.9
2017-Jul-19 07:26N 58°04' E 010°52'1 1.9
2017-Jul-19 06:58N 58°03' E 010°52'1 2.0
2017-Jul-19 06:27N 58°02' E 010°52'1 2.1
2017-Jul-19 06:01N 58°01' E 010°51'1 2.1
2017-Jul-19 05:30N 58°00' E 010°50'1 2.8
2017-Jul-19 04:59N 57°59' E 010°49'3 6.0
2017-Jul-19 04:31N 57°56' E 010°47'5 9.6
2017-Jul-19 03:59N 57°51' E 010°45'5 9.8
2017-Jul-19 03:30N 57°47' E 010°44'5 9.3
2017-Jul-19 03:00N 57°43' E 010°38'1 1.0
2017-Jul-19 01:43N 57°43' E 010°36'2 9.0
2017-Jul-19 01:29N 57°43' E 010°39'4 8.1
2017-Jul-19 00:59N 57°47' E 010°43'5 9.6
2017-Jul-19 00:26N 57°52' E 010°39'4 9.4
2017-Jul-19 00:00N 57°56' E 010°37'811.0
2017-Jul-18 23:18N 58°03' E 010°31'6 7.7
2017-Jul-18 22:32N 58°08' E 010°27'0 9.0
2017-Jul-18 22:28N 58°09' E 010°27'4 8.7
2017-Jul-18 22:01N 58°13' E 010°24'1 2.3
2017-Jul-18 21:25N 58°14' E 010°22'0 1.2
2017-Jul-18 21:00N 58°14' E 010°22'1 1.9
2017-Jul-18 20:30N 58°13' E 010°20'1 1.8
2017-Jul-18 19:57N 58°13' E 010°18'1 1.8
2017-Jul-18 19:30N 58°13' E 010°16'1 1.8
2017-Jul-18 18:58N 58°13' E 010°15'1 1.8
2017-Jul-18 18:30N 58°13' E 010°13'1 2.0
2017-Jul-18 17:53N 58°12' E 010°11'1 2.0
2017-Jul-18 17:31N 58°12' E 010°10'1 2.0
2017-Jul-18 16:59N 58°11' E 010°08'1 2.0
2017-Jul-18 16:25N 58°11' E 010°06'1 2.1
2017-Jul-18 16:00N 58°10' E 010°05'1 2.1
2017-Jul-18 15:30N 58°10' E 010°03'1 2.1
2017-Jul-18 14:58N 58°09' E 010°01'3 2.1
2017-Jul-18 13:37N 58°08' E 009°56'0 2.1
2017-Jul-18 13:25N 58°07' E 009°56'1 2.1
2017-Jul-18 12:59N 58°07' E 009°54'2 2.2
2017-Jul-18 12:16N 58°06' E 009°52'1 3.4
2017-Jul-18 11:54N 58°05' E 009°50'11 8.3
2017-Jul-18 10:32N 58°09' E 010°11'1 8.5
2017-Jul-18 10:23N 58°10' E 010°13'  
Track history (hours):
 
Tides and Currents Weather Stations Pressure Air Temp Water Temp Dewpoint Dewpoint Depression Visibility Wind Speed Wind Dir Waves Ship Positions

S 386 Casilo

Last reported at 2017-Jul-27 08:00 UTC. Time now 2017-Jul-27 08:24 UTC.
Position N 58°01' E 010°53'.

Length 24 m.

Type: Fishing. MMSI: 219948000.

Date/timePositionNaut miles runAvg speedWind from/ knotsBaromVisibWave heightAir tempDewpointWater temp
2017-Jul-27 08:00N 58°01' E 010°53'1 1.8
2017-Jul-27 07:29N 58°01' E 010°51'1 1.9
2017-Jul-27 06:56N 58°00' E 010°49'1 2.0
2017-Jul-27 06:30N 58°00' E 010°48'1 2.1
2017-Jul-27 06:00N 58°00' E 010°46'1 2.0
2017-Jul-27 05:30N 58°00' E 010°44'1 2.0
2017-Jul-27 04:59N 58°01' E 010°43'1 1.9
2017-Jul-27 04:30N 58°02' E 010°41'1 1.9
2017-Jul-27 04:00N 58°03' E 010°40'1 1.9
2017-Jul-27 03:30N 58°03' E 010°39'1 1.9
2017-Jul-27 03:00N 58°04' E 010°38'1 1.9
2017-Jul-27 02:29N 58°05' E 010°37'1 1.9
2017-Jul-27 01:58N 58°06' E 010°36'1 1.8
2017-Jul-27 01:30N 58°06' E 010°35'1 1.8
2017-Jul-27 01:00N 58°07' E 010°34'1 1.9
2017-Jul-27 00:30N 58°08' E 010°33'2 1.9
2017-Jul-26 23:35N 58°09' E 010°30'0 1.9
2017-Jul-26 23:26N 58°09' E 010°29'6 2.0
2017-Jul-26 20:14N 58°10' E 010°17'2 8.8
2017-Jul-26 20:00N 58°10' E 010°21'5 8.6
2017-Jul-26 19:28N 58°10' E 010°30'4 8.1
2017-Jul-26 19:00N 58°10' E 010°37'2 4.3
2017-Jul-26 18:30N 58°10' E 010°41'0 0.8
2017-Jul-26 18:00N 58°10' E 010°40'1 2.0
2017-Jul-26 17:31N 58°11' E 010°39'1 2.0
2017-Jul-26 17:00N 58°12' E 010°38'1 2.0
2017-Jul-26 16:30N 58°12' E 010°36'1 2.0
2017-Jul-26 16:00N 58°13' E 010°34'1 2.0
2017-Jul-26 15:28N 58°13' E 010°32'4 2.0
2017-Jul-26 13:17N 58°14' E 010°25'1 2.0
2017-Jul-26 12:59N 58°14' E 010°23'12 2.0
2017-Jul-26 07:12N 58°10' E 010°02'1 2.8
2017-Jul-26 06:56N 58°10' E 010°01'3 8.0
2017-Jul-26 06:30N 58°11' E 010°08'34 2.1
2017-Jul-25 13:58N 57°38' E 009°55'2 2.8
2017-Jul-25 13:05N 57°36' E 009°58'1 7.8
2017-Jul-25 13:00N 57°36' E 009°57'5 9.3
2017-Jul-25 12:29N 57°40' E 010°02'4 9.2
2017-Jul-25 12:00N 57°44' E 010°06'5 9.3
2017-Jul-25 11:31N 57°49' E 010°09'5 9.3
2017-Jul-25 11:00N 57°53' E 010°12'5 9.1
2017-Jul-25 10:30N 57°57' E 010°15'8 8.7
2017-Jul-25 09:33N 58°05' E 010°18'3 8.8
2017-Jul-25 09:13N 58°08' E 010°19'6 8.1
2017-Jul-25 08:30N 58°14' E 010°22'1 0.9
2017-Jul-25 07:51N 58°13' E 010°22'1 1.8
2017-Jul-25 07:11N 58°13' E 010°20'0 1.9
2017-Jul-25 07:00N 58°13' E 010°19'1 1.9
2017-Jul-25 06:30N 58°13' E 010°18'1 1.9
2017-Jul-25 06:01N 58°13' E 010°16'1 1.9
2017-Jul-25 05:30N 58°13' E 010°14'1 1.9
2017-Jul-25 04:56N 58°12' E 010°12'1 1.9
2017-Jul-25 04:30N 58°12' E 010°11'1 2.0
2017-Jul-25 03:59N 58°12' E 010°09'1 2.0
2017-Jul-25 03:30N 58°11' E 010°08'1 2.0
2017-Jul-25 03:00N 58°11' E 010°06'1 2.0
2017-Jul-25 02:30N 58°10' E 010°04'3 1.7
2017-Jul-25 00:53N 58°09' E 009°59'7 0.4
2017-Jul-24 09:37N 58°07' E 009°47'2 9.0
2017-Jul-24 09:22N 58°09' E 009°50'4 9.2
2017-Jul-24 08:59N 58°11' E 009°55'4 9.2
2017-Jul-24 08:29N 58°13' E 010°02'2 3.2
2017-Jul-24 08:00N 58°14' E 010°05'24 1.9
2017-Jul-23 19:21N 57°60' E 009°28'6 9.2
2017-Jul-23 18:43N 57°59' E 009°39'9 9.1
2017-Jul-23 17:42N 57°55' E 009°55'9 9.4
2017-Jul-23 16:47N 57°52' E 010°10'3 9.4
2017-Jul-23 16:29N 57°51' E 010°15'5 9.5
2017-Jul-23 16:00N 57°49' E 010°23'5 9.9
2017-Jul-23 15:31N 57°47' E 010°31'510.0
2017-Jul-23 15:00N 57°46' E 010°41'3 6.3
2017-Jul-23 14:30N 57°43' E 010°38'1 2.3
2017-Jul-23 14:00N 57°43' E 010°36'0 0.0
2017-Jul-23 13:30N 57°43' E 010°36'0 0.1
2017-Jul-23 13:00N 57°43' E 010°36'1 1.1
2017-Jul-23 12:31N 57°43' E 010°36'4 7.6
2017-Jul-23 12:00N 57°45' E 010°42'5 8.9
2017-Jul-23 11:30N 57°50' E 010°43'4 8.6
2017-Jul-23 11:00N 57°54' E 010°43'4 8.5
2017-Jul-23 10:31N 57°58' E 010°43'4 8.0
2017-Jul-23 10:00N 58°02' E 010°42'3 5.9
2017-Jul-23 09:30N 58°05' E 010°42'0 0.8
2017-Jul-23 08:58N 58°05' E 010°42'4 1.9
2017-Jul-23 06:54N 58°08' E 010°38'1 1.9
2017-Jul-23 06:30N 58°09' E 010°37'1 1.9
2017-Jul-23 06:00N 58°09' E 010°36'1 1.9
2017-Jul-23 05:29N 58°10' E 010°34'1 1.8
2017-Jul-23 04:59N 58°10' E 010°33'1 1.8
2017-Jul-23 04:30N 58°11' E 010°31'1 1.8
2017-Jul-23 04:00N 58°11' E 010°30'1 1.8
2017-Jul-23 03:30N 58°12' E 010°29'1 1.8
2017-Jul-23 03:00N 58°12' E 010°27'1 1.8
2017-Jul-23 02:28N 58°12' E 010°25'1 1.9
2017-Jul-23 02:00N 58°12' E 010°24'1 1.9
2017-Jul-23 01:30N 58°12' E 010°22'1 1.9
2017-Jul-23 01:00N 58°12' E 010°20'9 1.9
2017-Jul-22 20:06N 58°15' E 010°03'3 1.4
2017-Jul-22 18:15N 58°13' E 010°01'1 1.9
2017-Jul-22 17:46N 58°12' E 009°59'1 1.9
2017-Jul-22 17:28N 58°12' E 009°58'1 1.9
2017-Jul-22 16:59N 58°11' E 009°57'12 1.9
2017-Jul-22 10:58N 58°05' E 009°38'1 2.1
2017-Jul-22 10:28N 58°05' E 009°37'1 2.1
2017-Jul-22 10:00N 58°04' E 009°35'1 2.1
2017-Jul-22 09:30N 58°03' E 009°33'5 1.5
2017-Jul-22 06:31N 58°01' E 009°26'2 8.7
2017-Jul-22 06:17N 58°02' E 009°29'7 8.8
2017-Jul-22 05:26N 58°06' E 009°41'4 9.1
2017-Jul-22 05:01N 58°08' E 009°47'5 9.3
2017-Jul-22 04:30N 58°10' E 009°55'6 6.9
2017-Jul-22 03:34N 58°15' E 010°04'0 1.0
2017-Jul-22 03:30N 58°15' E 010°04'0 0.9
2017-Jul-22 03:00N 58°14' E 010°05'1 1.6
2017-Jul-22 02:08N 58°13' E 010°03'0 1.9
2017-Jul-22 02:00N 58°13' E 010°02'2 1.9
2017-Jul-22 01:07N 58°12' E 009°60'2 2.0
2017-Jul-22 00:05N 58°11' E 009°57'1 2.0
2017-Jul-21 23:45N 58°11' E 009°56'26 1.0
2017-Jul-20 21:58N 57°51' E 009°24'5 8.5
2017-Jul-20 21:21N 57°51' E 009°34'3 8.5
2017-Jul-20 21:00N 57°50' E 009°40'4 8.7
2017-Jul-20 20:29N 57°50' E 009°48'4 9.1
2017-Jul-20 20:00N 57°49' E 009°56'5 9.3
2017-Jul-20 19:29N 57°49' E 010°05'5 9.4
2017-Jul-20 19:00N 57°49' E 010°14'5 9.6
2017-Jul-20 18:28N 57°48' E 010°23'510.3
2017-Jul-20 18:00N 57°48' E 010°32'610.0
2017-Jul-20 17:27N 57°46' E 010°42'4 8.6
2017-Jul-20 17:00N 57°43' E 010°37'1 1.4
2017-Jul-20 16:30N 57°43' E 010°36'0 0.0
2017-Jul-20 16:00N 57°43' E 010°36'0 0.0
2017-Jul-20 15:26N 57°43' E 010°36'0 0.0
2017-Jul-20 15:00N 57°43' E 010°36'0 0.0
2017-Jul-20 14:00N 57°43' E 010°36'0 0.0
2017-Jul-20 13:30N 57°43' E 010°36'3 5.9
2017-Jul-20 12:59N 57°44' E 010°41'4 8.4
2017-Jul-20 12:30N 57°48' E 010°44'6 8.8
2017-Jul-20 11:49N 57°54' E 010°46'3 8.1
2017-Jul-20 11:27N 57°56' E 010°47'5 8.2
2017-Jul-20 10:51N 58°01' E 010°48'3 8.2
2017-Jul-20 10:29N 58°04' E 010°48'2 3.6
2017-Jul-20 09:59N 58°06' E 010°49'2 1.6
2017-Jul-20 08:37N 58°04' E 010°49'0 1.8
2017-Jul-20 08:22N 58°04' E 010°49'1 1.8
2017-Jul-20 07:59N 58°03' E 010°49'1 1.8
2017-Jul-20 07:30N 58°02' E 010°47'1 1.8
2017-Jul-20 06:59N 58°02' E 010°45'1 1.9
2017-Jul-20 06:30N 58°03' E 010°44'1 1.9
2017-Jul-20 05:59N 58°04' E 010°44'1 1.9
2017-Jul-20 05:30N 58°05' E 010°43'1 2.0
2017-Jul-20 05:00N 58°06' E 010°42'1 2.0
2017-Jul-20 04:30N 58°07' E 010°41'1 2.0
2017-Jul-20 04:00N 58°08' E 010°40'1 2.0
2017-Jul-20 03:20N 58°09' E 010°39'1 2.0
2017-Jul-20 02:51N 58°09' E 010°38'1 2.0
2017-Jul-20 02:17N 58°10' E 010°36'1 2.0
2017-Jul-20 01:36N 58°11' E 010°34'0 2.0
2017-Jul-20 01:30N 58°11' E 010°34'1 1.9
2017-Jul-20 00:57N 58°11' E 010°32'1 2.0
2017-Jul-20 00:25N 58°12' E 010°30'1 1.9
2017-Jul-19 23:58N 58°12' E 010°28'2 2.0
2017-Jul-19 23:04N 58°13' E 010°25'0 2.0
2017-Jul-19 22:52N 58°13' E 010°24'1 2.0
2017-Jul-19 22:28N 58°12' E 010°23'1 2.0
2017-Jul-19 22:00N 58°12' E 010°21'1 2.0
2017-Jul-19 21:30N 58°12' E 010°19'1 2.0
2017-Jul-19 20:59N 58°12' E 010°17'1 1.9
2017-Jul-19 20:28N 58°12' E 010°16'4 9.5
2017-Jul-19 19:59N 58°14' E 010°23'6 9.8
2017-Jul-19 19:21N 58°17' E 010°33'5 9.9
2017-Jul-19 18:50N 58°19' E 010°42'3 8.5
2017-Jul-19 18:30N 58°22' E 010°41'1 1.8
2017-Jul-19 17:57N 58°23' E 010°41'1 1.4
2017-Jul-19 17:28N 58°22' E 010°42'1 2.1
2017-Jul-19 16:53N 58°21' E 010°42'3 2.0
2017-Jul-19 15:32N 58°19' E 010°44'0 1.9
2017-Jul-19 15:30N 58°19' E 010°44'1 2.0
2017-Jul-19 15:00N 58°18' E 010°44'7 1.9
2017-Jul-19 11:28N 58°11' E 010°48'1 1.9
2017-Jul-19 11:00N 58°10' E 010°48'1 1.9
2017-Jul-19 10:22N 58°09' E 010°49'1 2.0
2017-Jul-19 09:45N 58°08' E 010°50'1 2.0
2017-Jul-19 09:25N 58°07' E 010°50'1 2.0
2017-Jul-19 08:58N 58°07' E 010°51'1 1.9
2017-Jul-19 08:20N 58°05' E 010°51'1 2.0
2017-Jul-19 08:00N 58°05' E 010°51'1 1.9
2017-Jul-19 07:26N 58°04' E 010°52'1 1.9
2017-Jul-19 06:58N 58°03' E 010°52'1 2.0
2017-Jul-19 06:27N 58°02' E 010°52'1 2.1
2017-Jul-19 06:01N 58°01' E 010°51'1 2.1
2017-Jul-19 05:30N 58°00' E 010°50'1 2.8
2017-Jul-19 04:59N 57°59' E 010°49'3 6.0
2017-Jul-19 04:31N 57°56' E 010°47'5 9.6
2017-Jul-19 03:59N 57°51' E 010°45'5 9.8
2017-Jul-19 03:30N 57°47' E 010°44'5 9.3
2017-Jul-19 03:00N 57°43' E 010°38'1 1.0
2017-Jul-19 01:43N 57°43' E 010°36'2 9.0
2017-Jul-19 01:29N 57°43' E 010°39'4 8.1
2017-Jul-19 00:59N 57°47' E 010°43'5 9.6
2017-Jul-19 00:26N 57°52' E 010°39'4 9.4
2017-Jul-19 00:00N 57°56' E 010°37'811.0
2017-Jul-18 23:18N 58°03' E 010°31'6 7.7
2017-Jul-18 22:32N 58°08' E 010°27'0 9.0
2017-Jul-18 22:28N 58°09' E 010°27'4 8.7
2017-Jul-18 22:01N 58°13' E 010°24'1 2.3
2017-Jul-18 21:25N 58°14' E 010°22'0 1.2
2017-Jul-18 21:00N 58°14' E 010°22'1 1.9
2017-Jul-18 20:30N 58°13' E 010°20'1 1.8
2017-Jul-18 19:57N 58°13' E 010°18'1 1.8
2017-Jul-18 19:30N 58°13' E 010°16'1 1.8
2017-Jul-18 18:58N 58°13' E 010°15'1 1.8
2017-Jul-18 18:30N 58°13' E 010°13'1 2.0
2017-Jul-18 17:53N 58°12' E 010°11'1 2.0
2017-Jul-18 17:31N 58°12' E 010°10'1 2.0
2017-Jul-18 16:59N 58°11' E 010°08'1 2.0
2017-Jul-18 16:25N 58°11' E 010°06'1 2.1
2017-Jul-18 16:00N 58°10' E 010°05'1 2.1
2017-Jul-18 15:30N 58°10' E 010°03'1 2.1
2017-Jul-18 14:58N 58°09' E 010°01'3 2.1
2017-Jul-18 13:37N 58°08' E 009°56'0 2.1
2017-Jul-18 13:25N 58°07' E 009°56'1 2.1
2017-Jul-18 12:59N 58°07' E 009°54'2 2.2
2017-Jul-18 12:16N 58°06' E 009°52'1 3.4
2017-Jul-18 11:54N 58°05' E 009°50'11 8.3
2017-Jul-18 10:32N 58°09' E 010°11'1 8.5
2017-Jul-18 10:23N 58°10' E 010°13'  

Dump ship's entire track history